Time;durP1;ratioP1;P1;durP2;ratioP2;P2;SDS_P1;SDS_P2;PMS_P1;PMS_P2;Temp;Humidity;BMP_temperature;BMP_pressure;BME280_temperature;BME280_humidity;BME280_pressure;Samples;Min_cycle;Max_cycle;Signal;HPM_P1;HPM_P2
2021/04/30 00:00:37;;;;;;;0.10;0.10;;;;;;;;;;5024620;28;20264;-68
2021/04/30 00:03:02;;;;;;;0.20;0.20;;;;;;;;;;5038961;28;20303;-68
2021/04/30 00:05:29;;;;;;;0.10;0.10;;;;;;;;;;5040196;28;20093;-68
2021/04/30 00:07:54;;;;;;;0.13;0.13;;;;;;;;;;5043118;28;20009;-68
2021/04/30 00:10:20;;;;;;;0.20;0.20;;;;;;;;;;5024986;28;20529;-68
2021/04/30 00:12:45;;;;;;;0.17;0.17;;;;;;;;;;5025776;28;20807;-68
2021/04/30 00:15:10;;;;;;;0.10;0.10;;;;;;;;;;5025536;28;20342;-69
2021/04/30 00:17:35;;;;;;;0.10;0.10;;;;;;;;;;5038186;28;20108;-68
2021/04/30 00:20:01;;;;;;;0.20;0.20;;;;;;;;;;5039797;28;20890;-68
2021/04/30 00:22:26;;;;;;;0.10;0.10;;;;;;;;;;5041512;28;20260;-69
2021/04/30 00:24:51;;;;;;;0.10;0.10;;;;;;;;;;5040504;28;20029;-68
2021/04/30 00:27:16;;;;;;;0.10;0.10;;;;;;;;;;5021385;28;20053;-69
2021/04/30 00:29:41;;;;;;;0.15;0.15;;;;;;;;;;5042022;28;20114;-69
2021/04/30 00:32:07;;;;;;;0.10;0.10;;;;;;;;;;5041263;28;20044;-68
2021/04/30 00:34:32;;;;;;;0.20;0.20;;;;;;;;;;5039419;28;20667;-69
2021/04/30 00:36:57;;;;;;;0.10;0.10;;;;;;;;;;5040148;28;20042;-68
2021/04/30 00:39:22;;;;;;;0.13;0.13;;;;;;;;;;5042255;28;20029;-68
2021/04/30 00:41:48;;;;;;;0.20;0.20;;;;;;;;;;5042893;28;20329;-69
2021/04/30 00:44:13;;;;;;;0.20;0.20;;;;;;;;;;5042878;28;20283;-68
2021/04/30 00:46:38;;;;;;;0.20;0.20;;;;;;;;;;5026368;28;20290;-69
2021/04/30 00:49:03;;;;;;;0.20;0.20;;;;;;;;;;5032546;28;20280;-68
2021/04/30 00:51:28;;;;;;;0.13;0.13;;;;;;;;;;5029710;28;20032;-69
2021/04/30 00:53:54;;;;;;;0.20;0.20;;;;;;;;;;5043985;28;20527;-68
2021/04/30 00:56:19;;;;;;;0.20;0.20;;;;;;;;;;5043235;28;20021;-68
2021/04/30 00:58:44;;;;;;;0.20;0.20;;;;;;;;;;5043451;28;20333;-68
2021/04/30 01:01:09;;;;;;;0.20;0.20;;;;;;;;;;5044528;28;20025;-68
2021/04/30 01:03:35;;;;;;;0.20;0.20;;;;;;;;;;5045004;28;20712;-68
2021/04/30 01:06:00;;;;;;;0.20;0.20;;;;;;;;;;5027099;28;20020;-68
2021/04/30 01:08:25;;;;;;;0.20;0.20;;;;;;;;;;5045268;28;21460;-68
2021/04/30 01:10:51;;;;;;;0.20;0.20;;;;;;;;;;5048503;28;20025;-68
2021/04/30 01:13:16;;;;;;;0.20;0.20;;;;;;;;;;5030993;28;20299;-68
2021/04/30 01:15:41;;;;;;;0.20;0.20;;;;;;;;;;5043464;28;20017;-69
2021/04/30 01:18:06;;;;;;;0.20;0.20;;;;;;;;;;5043088;28;20305;-68
2021/04/30 01:20:31;;;;;;;0.20;0.20;;;;;;;;;;5044276;28;20037;-68
2021/04/30 01:22:56;;;;;;;0.20;0.20;;;;;;;;;;5027977;28;20040;-68
2021/04/30 01:25:22;;;;;;;0.10;0.10;;;;;;;;;;5027657;28;20382;-68
2021/04/30 01:27:48;;;;;;;0.20;0.20;;;;;;;;;;5043155;28;20056;-69
2021/04/30 01:30:14;;;;;;;0.20;0.20;;;;;;;;;;5045200;28;20477;-68
2021/04/30 01:32:39;;;;;;;0.20;0.20;;;;;;;;;;5044126;28;20056;-68
2021/04/30 01:35:05;;;;;;;0.20;0.20;;;;;;;;;;5027381;28;20052;-68
2021/04/30 01:37:30;;;;;;;0.20;0.20;;;;;;;;;;5026313;28;20108;-68
2021/04/30 01:39:55;;;;;;;0.17;0.17;;;;;;;;;;5041838;28;20025;-68
2021/04/30 01:42:20;;;;;;;0.20;0.20;;;;;;;;;;5042597;28;20878;-68
2021/04/30 01:44:47;;;;;;;0.20;0.20;;;;;;;;;;5043730;28;20029;-69
2021/04/30 01:47:12;;;;;;;0.20;0.20;;;;;;;;;;5044583;28;20263;-69
2021/04/30 01:49:38;;;;;;;0.20;0.20;;;;;;;;;;5026733;28;20018;-68
2021/04/30 01:52:03;;;;;;;0.20;0.20;;;;;;;;;;5044934;28;20672;-68
2021/04/30 01:54:28;;;;;;;0.20;0.20;;;;;;;;;;5032140;28;20028;-69
2021/04/30 01:56:53;;;;;;;0.20;0.20;;;;;;;;;;5026340;28;20048;-68
2021/04/30 01:59:18;;;;;;;0.20;0.20;;;;;;;;;;5043554;28;20365;-68
2021/04/30 02:01:44;;;;;;;0.20;0.20;;;;;;;;;;5027482;28;20082;-68
2021/04/30 02:04:11;;;;;;;0.13;0.13;;;;;;;;;;5043002;28;20025;-69
2021/04/30 02:06:39;;;;;;;0.20;0.20;;;;;;;;;;5040910;28;20023;-69
2021/04/30 02:09:06;;;;;;;0.20;0.20;;;;;;;;;;5042848;28;20016;-69
2021/04/30 02:11:31;;;;;;;0.25;0.25;;;;;;;;;;5028760;28;20453;-68
2021/04/30 02:13:56;;;;;;;0.20;0.20;;;;;;;;;;5043221;28;20070;-68
2021/04/30 02:16:21;;;;;;;0.20;0.20;;;;;;;;;;5040222;28;20024;-68
2021/04/30 02:18:49;;;;;;;0.20;0.20;;;;;;;;;;5025962;28;20275;-68
2021/04/30 02:21:14;;;;;;;0.20;0.20;;;;;;;;;;5027240;28;20267;-69
2021/04/30 02:23:39;;;;;;;0.20;0.20;;;;;;;;;;5025482;28;20022;-69
2021/04/30 02:26:05;;;;;;;0.20;0.20;;;;;;;;;;5042329;28;20773;-69
2021/04/30 02:28:30;;;;;;;0.20;0.20;;;;;;;;;;5042598;28;20021;-68
2021/04/30 02:30:56;;;;;;;0.20;0.20;;;;;;;;;;5041575;28;20021;-68
2021/04/30 02:33:24;;;;;;;0.20;0.20;;;;;;;;;;5042054;28;20017;-68
2021/04/30 02:35:49;;;;;;;0.20;0.20;;;;;;;;;;5043084;28;20382;-69
2021/04/30 02:38:15;;;;;;;0.20;0.20;;;;;;;;;;5027486;28;20037;-68
2021/04/30 02:40:41;;;;;;;0.20;0.20;;;;;;;;;;5043622;28;20025;-69
2021/04/30 02:43:07;;;;;;;0.20;0.20;;;;;;;;;;5026196;28;20397;-69
2021/04/30 02:45:32;;;;;;;0.20;0.20;;;;;;;;;;5043311;28;20029;-69
2021/04/30 02:47:57;;;;;;;0.20;0.20;;;;;;;;;;5042086;28;20014;-69
2021/04/30 02:50:23;;;;;;;0.20;0.20;;;;;;;;;;5026456;28;20021;-69
2021/04/30 02:52:49;;;;;;;0.20;0.20;;;;;;;;;;5041528;28;20373;-69
2021/04/30 02:55:14;;;;;;;0.20;0.20;;;;;;;;;;5024392;28;20016;-69
2021/04/30 02:57:40;;;;;;;0.20;0.20;;;;;;;;;;5042135;28;20028;-69
2021/04/30 03:00:05;;;;;;;0.20;0.20;;;;;;;;;;5041550;28;20458;-69
2021/04/30 03:02:31;;;;;;;0.20;0.20;;;;;;;;;;5024864;28;20036;-69
2021/04/30 03:04:57;;;;;;;0.20;0.20;;;;;;;;;;5026079;28;20029;-69
2021/04/30 03:07:22;;;;;;;0.20;0.20;;;;;;;;;;5024323;28;20029;-69
2021/04/30 03:09:47;;;;;;;0.20;0.20;;;;;;;;;;5041444;28;20032;-69
2021/04/30 03:12:12;;;;;;;0.20;0.20;;;;;;;;;;5043567;28;20268;-69
2021/04/30 03:14:37;;;;;;;0.20;0.20;;;;;;;;;;5024662;28;20029;-69
2021/04/30 03:17:03;;;;;;;0.20;0.20;;;;;;;;;;5025601;28;20025;-69
2021/04/30 03:19:28;;;;;;;0.20;0.20;;;;;;;;;;5042237;28;20811;-69
2021/04/30 03:21:53;;;;;;;0.20;0.20;;;;;;;;;;5022078;28;20031;-69
2021/04/30 03:24:18;;;;;;;0.20;0.20;;;;;;;;;;5024741;28;20280;-69
2021/04/30 03:26:44;;;;;;;0.20;0.20;;;;;;;;;;5042335;28;20032;-69
2021/04/30 03:29:09;;;;;;;0.20;0.20;;;;;;;;;;5040466;28;20350;-69
2021/04/30 03:31:34;;;;;;;0.20;0.20;;;;;;;;;;5041880;28;20024;-69
2021/04/30 03:33:59;;;;;;;0.20;0.20;;;;;;;;;;5024619;28;20021;-69
2021/04/30 03:36:25;;;;;;;0.20;0.20;;;;;;;;;;5040553;28;20267;-70
2021/04/30 03:38:50;;;;;;;0.20;0.20;;;;;;;;;;5025554;28;20030;-70
2021/04/30 03:41:15;;;;;;;0.20;0.20;;;;;;;;;;5023606;28;20032;-70
2021/04/30 03:43:41;;;;;;;0.20;0.20;;;;;;;;;;5042438;28;20366;-70
2021/04/30 03:46:06;;;;;;;0.20;0.20;;;;;;;;;;5043448;28;20016;-69
2021/04/30 03:48:31;;;;;;;0.20;0.20;;;;;;;;;;5024762;28;20036;-68
2021/04/30 03:50:57;;;;;;;0.20;0.20;;;;;;;;;;5041867;28;20017;-68
2021/04/30 03:53:22;;;;;;;0.20;0.20;;;;;;;;;;5022588;28;20026;-68
2021/04/30 03:55:47;;;;;;;0.20;0.20;;;;;;;;;;5044581;28;20024;-68
2021/04/30 03:58:13;;;;;;;0.20;0.20;;;;;;;;;;5041748;28;20079;-68
2021/04/30 04:00:38;;;;;;;0.20;0.20;;;;;;;;;;5041949;28;20033;-68
2021/04/30 04:03:03;;;;;;;0.20;0.20;;;;;;;;;;5026402;28;20636;-68
2021/04/30 04:05:28;;;;;;;0.20;0.20;;;;;;;;;;5023633;28;20028;-68
2021/04/30 04:07:53;;;;;;;0.20;0.20;;;;;;;;;;5043148;28;20017;-68
2021/04/30 04:10:19;;;;;;;0.27;0.27;;;;;;;;;;5042388;28;20028;-68
2021/04/30 04:12:44;;;;;;;0.20;0.20;;;;;;;;;;5041545;28;20641;-68
2021/04/30 04:15:09;;;;;;;0.20;0.20;;;;;;;;;;5043156;28;20543;-68
2021/04/30 04:17:34;;;;;;;0.30;0.30;;;;;;;;;;5026949;28;20272;-68
2021/04/30 04:20:00;;;;;;;0.20;0.20;;;;;;;;;;5045586;28;20059;-68
2021/04/30 04:22:25;;;;;;;0.20;0.20;;;;;;;;;;5028767;28;20389;-68
2021/04/30 04:24:50;;;;;;;0.20;0.20;;;;;;;;;;5047985;28;20280;-68
2021/04/30 04:27:15;;;;;;;0.20;0.20;;;;;;;;;;5043399;28;20036;-68
2021/04/30 04:29:40;;;;;;;0.20;0.20;;;;;;;;;;5028102;28;20622;-68
2021/04/30 04:32:06;;;;;;;0.20;0.20;;;;;;;;;;5045191;28;20013;-67
2021/04/30 04:34:31;;;;;;;0.20;0.20;;;;;;;;;;5028276;28;20267;-67
2021/04/30 04:36:56;;;;;;;0.20;0.20;;;;;;;;;;5039862;28;20088;-67
2021/04/30 04:39:21;;;;;;;0.20;0.20;;;;;;;;;;5046120;28;20025;-67
2021/04/30 04:41:47;;;;;;;0.20;0.20;;;;;;;;;;5045337;28;20035;-67
2021/04/30 04:44:15;;;;;;;0.20;0.20;;;;;;;;;;5045611;28;20334;-67
2021/04/30 04:46:40;;;;;;;0.30;0.30;;;;;;;;;;5027483;28;20063;-68
2021/04/30 04:49:05;;;;;;;0.20;0.20;;;;;;;;;;5030223;28;20021;-67
2021/04/30 04:51:31;;;;;;;0.20;0.20;;;;;;;;;;5025283;28;20274;-67
2021/04/30 04:53:56;;;;;;;0.20;0.20;;;;;;;;;;5027277;28;20252;-67
2021/04/30 04:56:25;;;;;;;0.30;0.30;;;;;;;;;;5043150;28;20032;-67
2021/04/30 04:58:51;;;;;;;0.30;0.30;;;;;;;;;;5046814;28;20025;-67
2021/04/30 05:01:16;;;;;;;0.30;0.30;;;;;;;;;;5032119;28;20028;-68
2021/04/30 05:03:41;;;;;;;0.20;0.20;;;;;;;;;;5043023;28;20378;-67
2021/04/30 05:06:06;;;;;;;0.20;0.20;;;;;;;;;;5046098;28;20060;-68
2021/04/30 05:08:32;;;;;;;0.20;0.20;;;;;;;;;;5044398;28;20608;-67
2021/04/30 05:10:57;;;;;;;0.20;0.20;;;;;;;;;;5044115;28;20268;-68
2021/04/30 05:13:22;;;;;;;0.30;0.30;;;;;;;;;;5045237;28;20289;-68
2021/04/30 05:15:47;;;;;;;0.20;0.20;;;;;;;;;;5047772;28;20025;-68
2021/04/30 05:18:12;;;;;;;0.30;0.30;;;;;;;;;;5028927;28;20367;-68
2021/04/30 05:20:38;;;;;;;0.23;0.23;;;;;;;;;;5046133;28;20271;-68
2021/04/30 05:23:03;;;;;;;0.30;0.30;;;;;;;;;;5046473;28;20806;-68
2021/04/30 05:25:28;;;;;;;0.30;0.30;;;;;;;;;;5045745;28;20446;-68
2021/04/30 05:27:53;;;;;;;0.20;0.20;;;;;;;;;;5044818;28;20044;-68
2021/04/30 05:30:18;;;;;;;0.20;0.20;;;;;;;;;;5027126;28;20260;-68
2021/04/30 05:32:44;;;;;;;0.20;0.20;;;;;;;;;;5035185;28;20286;-68
2021/04/30 05:35:09;;;;;;;0.20;0.20;;;;;;;;;;5025263;28;20024;-69
2021/04/30 05:37:37;;;;;;;0.25;0.25;;;;;;;;;;5027775;28;20052;-68
2021/04/30 05:40:03;;;;;;;0.30;0.30;;;;;;;;;;5028662;28;20064;-68
2021/04/30 05:42:28;;;;;;;0.20;0.20;;;;;;;;;;5044294;28;20029;-68
2021/04/30 05:44:53;;;;;;;0.20;0.20;;;;;;;;;;5043852;28;20068;-68
2021/04/30 05:47:19;;;;;;;0.20;0.20;;;;;;;;;;5043750;28;20060;-68
2021/04/30 05:49:44;;;;;;;0.20;0.20;;;;;;;;;;5044868;28;20025;-68
2021/04/30 05:52:09;;;;;;;0.20;0.20;;;;;;;;;;5027695;28;20119;-68
2021/04/30 05:54:35;;;;;;;0.20;0.20;;;;;;;;;;5030565;28;20290;-68
2021/04/30 05:57:00;;;;;;;0.20;0.20;;;;;;;;;;5046533;28;20272;-68
2021/04/30 05:59:25;;;;;;;0.20;0.20;;;;;;;;;;5028105;28;20102;-68
2021/04/30 06:01:51;;;;;;;0.20;0.20;;;;;;;;;;5043618;28;20295;-68
2021/04/30 06:04:17;;;;;;;0.20;0.20;;;;;;;;;;5042669;28;20025;-68
2021/04/30 06:06:42;;;;;;;0.20;0.20;;;;;;;;;;5026412;28;20381;-69
2021/04/30 06:09:07;;;;;;;0.20;0.20;;;;;;;;;;5022375;28;20021;-68
2021/04/30 06:11:32;;;;;;;0.20;0.20;;;;;;;;;;5022260;28;20018;-68
2021/04/30 06:13:58;;;;;;;0.20;0.20;;;;;;;;;;5027015;28;20117;-68
2021/04/30 06:16:23;;;;;;;0.20;0.20;;;;;;;;;;5024898;28;20028;-67
2021/04/30 06:18:48;;;;;;;0.20;0.20;;;;;;;;;;5028900;28;20056;-67
2021/04/30 06:21:13;;;;;;;0.23;0.23;;;;;;;;;;5041120;28;20674;-67
2021/04/30 06:23:38;;;;;;;0.20;0.20;;;;;;;;;;5026256;28;20329;-68
2021/04/30 06:26:04;;;;;;;0.20;0.20;;;;;;;;;;5046955;28;20050;-70
2021/04/30 06:28:29;;;;;;;0.20;0.20;;;;;;;;;;5028219;28;20621;-69
2021/04/30 06:30:56;;;;;;;0.20;0.20;;;;;;;;;;5047665;28;20712;-69
2021/04/30 06:33:21;;;;;;;0.20;0.20;;;;;;;;;;5026934;28;20025;-69
2021/04/30 06:35:46;;;;;;;0.20;0.20;;;;;;;;;;5024229;28;20078;-69
2021/04/30 06:38:12;;;;;;;0.20;0.20;;;;;;;;;;5025138;28;20056;-69
2021/04/30 06:40:37;;;;;;;0.20;0.20;;;;;;;;;;5026020;28;20305;-69
2021/04/30 06:43:02;;;;;;;0.20;0.20;;;;;;;;;;5044397;28;20108;-70
2021/04/30 06:45:27;;;;;;;0.10;0.10;;;;;;;;;;5043171;28;20017;-73
2021/04/30 06:47:53;;;;;;;0.20;0.20;;;;;;;;;;5025675;28;20359;-72
2021/04/30 06:50:18;;;;;;;0.20;0.20;;;;;;;;;;5024999;28;20033;-72
2021/04/30 06:52:43;;;;;;;0.20;0.20;;;;;;;;;;5043541;28;20263;-71
2021/04/30 06:55:08;;;;;;;0.10;0.10;;;;;;;;;;5043206;28;20334;-71
2021/04/30 06:57:36;;;;;;;0.20;0.20;;;;;;;;;;5040662;28;20021;-71
2021/04/30 07:00:01;;;;;;;0.10;0.10;;;;;;;;;;5023735;28;20025;-72
2021/04/30 07:02:27;;;;;;;0.20;0.20;;;;;;;;;;5049955;28;20482;-72
2021/04/30 07:04:57;;;;;;;0.20;0.20;;;;;;;;;;5049002;28;20062;-74
2021/04/30 07:07:22;;;;;;;0.10;0.10;;;;;;;;;;5036287;28;20113;-73
2021/04/30 07:09:48;;;;;;;0.10;0.10;;;;;;;;;;5042357;28;20057;-72
2021/04/30 07:12:13;;;;;;;0.10;0.10;;;;;;;;;;5043047;28;20013;-66
2021/04/30 07:14:39;;;;;;;0.10;0.10;;;;;;;;;;5039294;28;20092;-69
2021/04/30 07:17:04;;;;;;;0.10;0.10;;;;;;;;;;5042308;28;20017;-69
2021/04/30 07:19:29;;;;;;;0.13;0.13;;;;;;;;;;5027288;28;20354;-68
2021/04/30 07:21:54;;;;;;;0.10;0.10;;;;;;;;;;5040384;28;20504;-69
2021/04/30 07:24:19;;;;;;;0.10;0.10;;;;;;;;;;5029697;28;20029;-69
2021/04/30 07:26:45;;;;;;;0.10;0.10;;;;;;;;;;5042058;28;20028;-69
2021/04/30 07:29:11;;;;;;;0.20;0.20;;;;;;;;;;5026869;28;21123;-68
2021/04/30 07:31:36;;;;;;;0.15;0.15;;;;;;;;;;5042228;28;20107;-69
2021/04/30 07:34:01;;;;;;;0.10;0.10;;;;;;;;;;5044087;28;20033;-69
2021/04/30 07:36:26;;;;;;;0.10;0.10;;;;;;;;;;5040141;28;20471;-70
2021/04/30 07:38:52;;;;;;;0.10;0.10;;;;;;;;;;5042398;28;20028;-69
2021/04/30 07:41:17;;;;;;;0.10;0.10;;;;;;;;;;5024148;28;20029;-68
2021/04/30 07:43:45;;;;;;;0.10;0.10;;;;;;;;;;5041764;28;20021;-68
2021/04/30 07:46:12;;;;;;;0.10;0.10;;;;;;;;;;5041238;28;20025;-69
2021/04/30 07:48:38;;;;;;;0.10;0.10;;;;;;;;;;5023044;28;20457;-69
2021/04/30 07:51:04;;;;;;;0.10;0.10;;;;;;;;;;5026245;28;20023;-69
2021/04/30 07:53:29;;;;;;;0.10;0.10;;;;;;;;;;5027957;28;20095;-69
2021/04/30 07:55:55;;;;;;;0.10;0.10;;;;;;;;;;5044034;28;20111;-69
2021/04/30 07:58:23;;;;;;;0.10;0.10;;;;;;;;;;5026328;28;20065;-70
2021/04/30 08:00:48;;;;;;;0.10;0.10;;;;;;;;;;5025755;28;20033;-70
2021/04/30 08:03:14;;;;;;;0.10;0.10;;;;;;;;;;5028125;28;20028;-69
2021/04/30 08:05:39;;;;;;;0.10;0.10;;;;;;;;;;5042503;28;20286;-70
2021/04/30 08:08:04;;;;;;;0.10;0.10;;;;;;;;;;5028892;28;20017;-69
2021/04/30 08:10:31;;;;;;;0.10;0.10;;;;;;;;;;5041556;28;20096;-69
2021/04/30 08:12:56;;;;;;;0.10;0.10;;;;;;;;;;5024249;28;20021;-70
2021/04/30 08:15:22;;;;;;;0.10;0.10;;;;;;;;;;5039886;28;20096;-70
2021/04/30 08:17:47;;;;;;;0.10;0.10;;;;;;;;;;5024181;28;20075;-69
2021/04/30 08:20:12;;;;;;;0.10;0.10;;;;;;;;;;5023869;28;20025;-70
2021/04/30 08:22:38;;;;;;;0.10;0.10;;;;;;;;;;5040281;28;20076;-70
2021/04/30 08:25:04;;;;;;;0.10;0.10;;;;;;;;;;5042190;28;20390;-69
2021/04/30 08:27:29;;;;;;;0.10;0.10;;;;;;;;;;5024690;28;20433;-70
2021/04/30 08:29:54;;;;;;;0.10;0.10;;;;;;;;;;5044860;28;20022;-69
2021/04/30 08:32:19;;;;;;;0.10;0.10;;;;;;;;;;5040699;28;20304;-69
2021/04/30 08:34:45;;;;;;;0.10;0.10;;;;;;;;;;5047417;28;20033;-69
2021/04/30 08:37:10;;;;;;;0.10;0.10;;;;;;;;;;5024249;28;20056;-70
2021/04/30 08:39:35;;;;;;;0.10;0.10;;;;;;;;;;5039492;28;20032;-70
2021/04/30 08:42:01;;;;;;;0.03;0.03;;;;;;;;;;5049032;28;20067;-71
2021/04/30 08:44:26;;;;;;;0.00;0.00;;;;;;;;;;5035247;28;20032;-72
2021/04/30 08:46:51;;;;;;;0.10;0.10;;;;;;;;;;5015510;28;20021;-72
2021/04/30 08:49:16;;;;;;;0.10;0.10;;;;;;;;;;5015606;28;20053;-71
2021/04/30 08:51:42;;;;;;;0.10;0.10;;;;;;;;;;5032309;28;20025;-70
2021/04/30 08:54:08;;;;;;;0.10;0.10;;;;;;;;;;5032328;28;20256;-70
2021/04/30 08:56:36;;;;;;;0.10;0.10;;;;;;;;;;5048540;28;20029;-71
2021/04/30 08:59:03;;;;;;;0.00;0.00;;;;;;;;;;5032132;28;20536;-71
2021/04/30 09:01:28;;;;;;;0.10;0.10;;;;;;;;;;5028017;28;20025;-72
2021/04/30 09:03:54;;;;;;;0.10;0.10;;;;;;;;;;5021087;28;20036;-71
2021/04/30 09:06:30;;;;;;;0.05;0.05;;;;;;;;;;5039989;28;20333;-72
2021/04/30 09:08:56;;;;;;;0.10;0.10;;;;;;;;;;5028686;28;20465;-71
2021/04/30 09:11:34;;;;;;;0.10;0.10;;;;;;;;;;5026971;28;20026;-72
2021/04/30 09:14:19;;;;;;;0.10;0.10;;;;;;;;;;5030958;28;20072;-72
2021/04/30 09:17:03;;;;;;;0.10;0.10;;;;;;;;;;5047958;28;20033;-71
2021/04/30 09:20:04;;;;;;;0.10;0.10;;;;;;;;;;5044485;28;20025;-72
2021/04/30 09:22:30;;;;;;;0.10;0.10;;;;;;;;;;5046847;28;20500;-72
2021/04/30 09:24:56;;;;;;;0.10;0.10;;;;;;;;;;5044803;28;20108;-72
2021/04/30 09:27:28;;;;;;;0.10;0.10;;;;;;;;;;5029459;28;20441;-73
2021/04/30 09:29:53;;;;;;;0.10;0.10;;;;;;;;;;5044736;28;20037;-72
2021/04/30 09:32:18;;;;;;;0.10;0.10;;;;;;;;;;5048205;28;20483;-72
2021/04/30 09:34:44;;;;;;;0.10;0.10;;;;;;;;;;5032564;28;20089;-71
2021/04/30 09:37:14;;;;;;;0.10;0.10;;;;;;;;;;5026099;28;20786;-73
2021/04/30 09:39:47;;;;;;;0.10;0.10;;;;;;;;;;5047228;28;20493;-73
2021/04/30 09:42:17;;;;;;;0.10;0.10;;;;;;;;;;5031306;28;20020;-73
2021/04/30 09:44:43;;;;;;;0.10;0.10;;;;;;;;;;5044787;28;20112;-73
2021/04/30 09:47:22;;;;;;;0.08;0.08;;;;;;;;;;5026294;28;20043;-73
2021/04/30 09:49:51;;;;;;;0.00;0.00;;;;;;;;;;5050385;28;20021;-72
2021/04/30 09:52:17;;;;;;;0.00;0.00;;;;;;;;;;5043910;28;20084;-72
2021/04/30 09:54:42;;;;;;;0.00;0.00;;;;;;;;;;5046586;28;20047;-72
2021/04/30 09:57:08;;;;;;;0.00;0.00;;;;;;;;;;5062040;28;20021;-71
2021/04/30 09:59:36;;;;;;;0.00;0.00;;;;;;;;;;5058451;28;20033;-70
2021/04/30 10:02:01;;;;;;;0.10;0.10;;;;;;;;;;5050461;28;20100;-70
2021/04/30 10:04:31;;;;;;;0.00;0.00;;;;;;;;;;5053475;28;20068;-72
2021/04/30 10:06:56;;;;;;;0.08;0.08;;;;;;;;;;5035716;28;20017;-73
2021/04/30 10:09:24;;;;;;;0.00;0.00;;;;;;;;;;5042250;28;20083;-72
2021/04/30 10:11:49;;;;;;;0.10;0.10;;;;;;;;;;5043211;28;20120;-71
2021/04/30 10:14:14;;;;;;;0.03;0.03;;;;;;;;;;5042825;28;20108;-72
2021/04/30 10:16:40;;;;;;;0.00;0.00;;;;;;;;;;5043210;28;20267;-72
2021/04/30 10:19:06;;;;;;;0.10;0.10;;;;;;;;;;5044355;28;20276;-72
2021/04/30 10:21:31;;;;;;;0.10;0.10;;;;;;;;;;5044839;28;20184;-71
2021/04/30 10:23:56;;;;;;;0.10;0.10;;;;;;;;;;5026559;28;20032;-72
2021/04/30 10:26:21;;;;;;;0.00;0.00;;;;;;;;;;5026697;28;20267;-73
2021/04/30 10:28:53;;;;;;;0.00;0.00;;;;;;;;;;5042232;28;20783;-73
2021/04/30 10:31:28;;;;;;;0.10;0.10;;;;;;;;;;5043405;28;20014;-72
2021/04/30 10:33:53;;;;;;;;;;;;;;;;;;5043374;28;20043;-72
2021/04/30 10:36:19;;;;;;;;;;;;;;;;;;5044890;28;19909;-73
2021/04/30 10:38:45;;;;;;;0.10;0.10;;;;;;;;;;5040229;28;19917;-72
2021/04/30 10:41:11;;;;;;;0.10;0.10;;;;;;;;;;5041943;28;20025;-73
2021/04/30 10:43:36;;;;;;;0.00;0.00;;;;;;;;;;5042990;28;20104;-73
2021/04/30 10:46:03;;;;;;;0.00;0.00;;;;;;;;;;5024032;28;20715;-72
2021/04/30 10:48:30;;;;;;;0.00;0.00;;;;;;;;;;5044369;28;20021;-72
2021/04/30 10:51:14;;;;;;;0.00;0.00;;;;;;;;;;5024731;28;20403;-72
2021/04/30 10:53:40;;;;;;;0.00;0.00;;;;;;;;;;5044948;28;20016;-72
2021/04/30 10:56:24;;;;;;;0.00;0.00;;;;;;;;;;5025581;28;20490;-73
2021/04/30 10:58:49;;;;;;;0.00;0.00;;;;;;;;;;5042588;28;20082;-74
2021/04/30 11:01:28;;;;;;;0.00;0.00;;;;;;;;;;5024193;28;20477;-72
2021/04/30 11:04:08;;;;;;;0.00;0.00;;;;;;;;;;5041997;28;20355;-73
2021/04/30 11:06:34;;;;;;;0.05;0.05;;;;;;;;;;5043603;28;20477;-72
2021/04/30 11:09:01;;;;;;;0.00;0.00;;;;;;;;;;5026307;28;20059;-72
2021/04/30 11:11:30;;;;;;;0.00;0.00;;;;;;;;;;5047578;28;20025;-72
2021/04/30 11:14:14;;;;;;;0.00;0.00;;;;;;;;;;5042474;28;20024;-72
2021/04/30 11:16:39;;;;;;;0.00;0.00;;;;;;;;;;5040380;28;20482;-72
2021/04/30 11:19:05;;;;;;;0.00;0.00;;;;;;;;;;5040952;28;20038;-72
2021/04/30 11:21:39;;;;;;;0.00;0.00;;;;;;;;;;5026199;28;20130;-73
2021/04/30 11:24:06;;;;;;;0.00;0.00;;;;;;;;;;5024705;28;20400;-73
2021/04/30 11:26:32;;;;;;;0.00;0.00;;;;;;;;;;5042144;28;20017;-72
2021/04/30 11:28:57;;;;;;;0.00;0.00;;;;;;;;;;5040000;28;20076;-72
2021/04/30 11:31:26;;;;;;;0.00;0.00;;;;;;;;;;5041956;28;20021;-72
2021/04/30 11:34:15;;;;;;;0.00;0.00;;;;;;;;;;5025315;28;20322;-72
2021/04/30 11:36:41;;;;;;;0.00;0.00;;;;;;;;;;5041305;28;20060;-73
2021/04/30 11:39:35;;;;;;;0.00;0.00;;;;;;;;;;5041972;28;20048;-73
2021/04/30 11:42:04;;;;;;;0.00;0.00;;;;;;;;;;5042823;28;20116;-73
2021/04/30 11:44:30;;;;;;;0.00;0.00;;;;;;;;;;5032788;28;20095;-73
2021/04/30 11:47:03;;;;;;;0.00;0.00;;;;;;;;;;5044409;28;20021;-72
2021/04/30 11:49:28;;;;;;;0.00;0.00;;;;;;;;;;5029534;28;20073;-72
2021/04/30 11:51:54;;;;;;;0.00;0.00;;;;;;;;;;5023846;28;20021;-72
2021/04/30 11:54:19;;;;;;;0.00;0.00;;;;;;;;;;5040559;28;20029;-72
2021/04/30 11:56:45;;;;;;;0.00;0.00;;;;;;;;;;5025813;28;20032;-73
2021/04/30 11:59:20;;;;;;;0.00;0.00;;;;;;;;;;5041607;28;20117;-72
2021/04/30 12:02:02;;;;;;;0.00;0.00;;;;;;;;;;5042840;28;20036;-73
2021/04/30 12:04:41;;;;;;;0.00;0.00;;;;;;;;;;5042158;28;20037;-73
2021/04/30 12:07:11;;;;;;;0.00;0.00;;;;;;;;;;5042424;28;20025;-72
2021/04/30 12:09:36;;;;;;;0.00;0.00;;;;;;;;;;5028567;28;20031;-72
2021/04/30 12:12:20;;;;;;;0.00;0.00;;;;;;;;;;5040945;28;20100;-72
2021/04/30 12:14:46;;;;;;;0.00;0.00;;;;;;;;;;5041006;28;20032;-72
2021/04/30 12:17:21;;;;;;;0.10;0.10;;;;;;;;;;5024351;28;20024;-72
2021/04/30 12:19:53;;;;;;;0.00;0.00;;;;;;;;;;5043847;28;20048;-73
2021/04/30 12:22:19;;;;;;;0.00;0.00;;;;;;;;;;5024051;28;20021;-73
2021/04/30 12:24:44;;;;;;;0.00;0.00;;;;;;;;;;5041875;28;20013;-73
2021/04/30 12:27:09;;;;;;;0.00;0.00;;;;;;;;;;5025140;28;20021;-74
2021/04/30 12:29:34;;;;;;;0.00;0.00;;;;;;;;;;5028805;28;20775;-73
2021/04/30 12:31:59;;;;;;;0.03;0.03;;;;;;;;;;5024469;28;20654;-73
2021/04/30 12:34:25;;;;;;;0.00;0.00;;;;;;;;;;5042009;28;20274;-72
2021/04/30 12:36:50;;;;;;;0.00;0.00;;;;;;;;;;5025316;28;20098;-72
2021/04/30 12:39:17;;;;;;;0.00;0.00;;;;;;;;;;5040797;28;20078;-72
2021/04/30 12:41:43;;;;;;;0.00;0.00;;;;;;;;;;5044653;28;20112;-72
2021/04/30 12:44:09;;;;;;;0.00;0.00;;;;;;;;;;5046546;28;20017;-72
2021/04/30 12:46:38;;;;;;;0.00;0.00;;;;;;;;;;5045301;28;20020;-72
2021/04/30 12:49:09;;;;;;;0.00;0.00;;;;;;;;;;5045731;28;20013;-73
2021/04/30 12:51:35;;;;;;;0.00;0.00;;;;;;;;;;5067240;28;20014;-79
2021/04/30 12:54:00;;;;;;;0.00;0.00;;;;;;;;;;5062913;28;20061;-78
2021/04/30 12:56:29;;;;;;;0.00;0.00;;;;;;;;;;5059260;28;20028;-77
2021/04/30 12:59:10;;;;;;;0.00;0.00;;;;;;;;;;5028981;28;20025;-70
2021/04/30 13:01:35;;;;;;;0.00;0.00;;;;;;;;;;5045237;28;20048;-77
2021/04/30 13:04:00;;;;;;;0.00;0.00;;;;;;;;;;5047340;28;20052;-71
2021/04/30 13:06:26;;;;;;;0.00;0.00;;;;;;;;;;5029664;28;20076;-76
2021/04/30 13:08:51;;;;;;;0.00;0.00;;;;;;;;;;5047234;28;20339;-73
2021/04/30 13:11:17;;;;;;;0.00;0.00;;;;;;;;;;5043201;28;20472;-74
2021/04/30 13:14:01;;;;;;;0.00;0.00;;;;;;;;;;5030164;28;20033;-75
2021/04/30 13:16:34;;;;;;;0.00;0.00;;;;;;;;;;5032102;28;20021;-77
2021/04/30 13:19:08;;;;;;;0.00;0.00;;;;;;;;;;5031157;28;20060;-73
2021/04/30 13:21:36;;;;;;;0.00;0.00;;;;;;;;;;5048276;28;20039;-70
2021/04/30 13:24:21;;;;;;;0.00;0.00;;;;;;;;;;5029593;28;20041;-69
2021/04/30 13:27:00;;;;;;;0.00;0.00;;;;;;;;;;5049316;28;20061;-71
2021/04/30 13:29:25;;;;;;;0.00;0.00;;;;;;;;;;5041315;28;20010;-71
2021/04/30 13:32:00;;;;;;;0.00;0.00;;;;;;;;;;5028097;28;20413;-71
2021/04/30 13:34:32;;;;;;;0.00;0.00;;;;;;;;;;5045041;28;20044;-77
2021/04/30 13:37:05;;;;;;;0.00;0.00;;;;;;;;;;5044249;28;20120;-77
2021/04/30 13:39:34;;;;;;;0.00;0.00;;;;;;;;;;5044654;28;20035;-76
2021/04/30 13:41:59;;;;;;;0.00;0.00;;;;;;;;;;5031081;28;20025;-76
2021/04/30 13:44:25;;;;;;;0.00;0.00;;;;;;;;;;5026695;28;20024;-76
2021/04/30 13:46:51;;;;;;;0.10;0.10;;;;;;;;;;5029338;28;20017;-77
2021/04/30 13:49:17;;;;;;;0.00;0.00;;;;;;;;;;5044151;28;20497;-76
2021/04/30 13:51:43;;;;;;;0.00;0.00;;;;;;;;;;5039820;28;20025;-79
2021/04/30 13:54:08;;;;;;;0.00;0.00;;;;;;;;;;5053271;28;20028;-77
2021/04/30 13:56:33;;;;;;;0.00;0.00;;;;;;;;;;5030566;28;20031;-74
2021/04/30 13:59:05;;;;;;;0.00;0.00;;;;;;;;;;5028279;28;20079;-74
2021/04/30 14:01:33;;;;;;;0.00;0.00;;;;;;;;;;5049930;28;20071;-78
2021/04/30 14:03:59;;;;;;;0.00;0.00;;;;;;;;;;5031300;28;20021;-80
2021/04/30 14:06:24;;;;;;;0.00;0.00;;;;;;;;;;5057950;28;20021;-78
2021/04/30 14:08:49;;;;;;;0.00;0.00;;;;;;;;;;5065237;28;20081;-80
2021/04/30 14:11:15;;;;;;;0.00;0.00;;;;;;;;;;5041386;28;20026;-79
2021/04/30 14:13:40;;;;;;;0.00;0.00;;;;;;;;;;5030833;28;20013;-72
2021/04/30 14:16:08;;;;;;;0.00;0.00;;;;;;;;;;5046340;28;20153;-74
2021/04/30 14:18:35;;;;;;;0.00;0.00;;;;;;;;;;5047265;28;20021;-72
2021/04/30 14:21:00;;;;;;;0.00;0.00;;;;;;;;;;5045616;28;20045;-74
2021/04/30 14:23:25;;;;;;;0.00;0.00;;;;;;;;;;5044367;28;20035;-74
2021/04/30 14:25:51;;;;;;;0.00;0.00;;;;;;;;;;5044602;28;20362;-75
2021/04/30 14:28:16;;;;;;;0.00;0.00;;;;;;;;;;5047264;28;20270;-74
2021/04/30 14:30:41;;;;;;;0.00;0.00;;;;;;;;;;5047247;28;20294;-75
2021/04/30 14:33:06;;;;;;;0.00;0.00;;;;;;;;;;5046136;28;20325;-76
2021/04/30 14:35:31;;;;;;;0.00;0.00;;;;;;;;;;5058323;28;20037;-79
2021/04/30 14:37:57;;;;;;;0.00;0.00;;;;;;;;;;5053972;28;20287;-77
2021/04/30 14:40:23;;;;;;;0.00;0.00;;;;;;;;;;5046722;28;20282;-77